createdAt,value
2017-12-22T00:02:10.133Z,18.80
2017-12-22T00:04:38.444Z,18.80
2017-12-22T00:07:07.091Z,18.80
2017-12-22T00:09:35.414Z,18.70
2017-12-22T00:12:03.825Z,18.80
2017-12-22T00:14:32.895Z,18.70
2017-12-22T00:17:01.275Z,18.80
2017-12-22T00:22:39.287Z,18.70
2017-12-22T03:19:01.392Z,18.50
2017-12-22T03:21:29.610Z,18.50
2017-12-22T03:23:57.858Z,18.50
2017-12-22T03:26:26.099Z,18.50
2017-12-22T03:28:54.386Z,18.50
2017-12-22T03:31:22.655Z,18.50
2017-12-22T03:33:50.922Z,18.50
2017-12-22T03:36:19.158Z,18.50
2017-12-22T03:38:47.486Z,18.50
2017-12-22T03:41:16.496Z,18.50
2017-12-22T03:43:44.816Z,18.50
2017-12-22T03:46:13.057Z,18.50
2017-12-22T03:48:41.302Z,18.50
2017-12-22T03:51:09.517Z,18.50
2017-12-22T03:53:37.742Z,18.50
2017-12-22T03:56:05.970Z,18.50
2017-12-22T03:58:34.229Z,18.50
2017-12-22T04:01:02.468Z,18.50
2017-12-22T04:03:30.728Z,18.50
2017-12-22T04:05:59.755Z,18.50
2017-12-22T04:08:28.008Z,18.50
2017-12-22T04:10:57.078Z,18.60
2017-12-22T04:13:25.310Z,18.60
2017-12-22T04:15:54.286Z,18.60
2017-12-22T04:18:22.511Z,18.50
2017-12-22T04:20:50.734Z,18.60
2017-12-22T04:23:18.972Z,18.60
2017-12-22T04:25:47.193Z,18.60
2017-12-22T04:28:15.422Z,18.60
2017-12-22T04:30:43.638Z,18.60
2017-12-22T04:33:11.879Z,18.60
2017-12-22T04:35:40.116Z,18.60
2017-12-22T04:38:09.212Z,18.60
2017-12-22T04:40:37.462Z,18.50
2017-12-22T04:43:05.715Z,18.60
2017-12-22T04:45:33.969Z,18.60
2017-12-22T04:48:02.223Z,18.60
2017-12-22T04:50:30.466Z,18.60
2017-12-22T04:52:58.698Z,18.60
2017-12-22T04:55:26.956Z,18.60
2017-12-22T04:57:55.200Z,18.60
2017-12-22T05:00:23.488Z,18.60
2017-12-22T05:02:51.711Z,18.70
2017-12-22T05:05:19.987Z,18.80
2017-12-22T05:07:48.305Z,18.80
2017-12-22T05:10:16.590Z,18.90
2017-12-22T05:12:44.856Z,19.00
2017-12-22T05:15:13.133Z,19.00
2017-12-22T05:17:41.459Z,19.10
2017-12-22T05:20:09.736Z,19.20
2017-12-22T05:22:37.974Z,19.20
2017-12-22T05:25:06.222Z,19.20
2017-12-22T05:27:34.468Z,19.20
2017-12-22T05:30:02.774Z,19.30
2017-12-22T05:32:31.008Z,19.30
2017-12-22T05:34:59.271Z,19.30
2017-12-22T05:37:28.301Z,19.30
2017-12-22T05:39:56.600Z,19.30
2017-12-22T05:42:24.852Z,19.30
2017-12-22T05:44:53.098Z,19.30
2017-12-22T05:47:22.160Z,19.30
2017-12-22T05:49:50.396Z,19.30
2017-12-22T05:52:18.827Z,19.30
2017-12-22T05:54:47.078Z,19.30
2017-12-22T05:57:15.407Z,19.30
2017-12-22T05:59:43.683Z,19.30
2017-12-22T06:02:12.478Z,19.30
2017-12-22T06:04:40.751Z,19.30
2017-12-22T06:07:08.997Z,19.30
2017-12-22T06:09:37.239Z,19.30
2017-12-22T06:12:05.481Z,19.40
2017-12-22T06:14:33.718Z,19.40
2017-12-22T06:17:02.763Z,19.40
2017-12-22T06:19:31.015Z,19.40
2017-12-22T06:21:59.290Z,19.40
2017-12-22T06:24:27.647Z,19.40
2017-12-22T06:26:56.740Z,19.60
2017-12-22T06:29:25.730Z,19.60
2017-12-22T06:31:54.889Z,19.60
2017-12-22T06:34:23.131Z,19.60
2017-12-22T06:36:51.396Z,19.60
2017-12-22T06:39:19.621Z,19.60
2017-12-22T06:41:47.891Z,19.60
2017-12-22T06:44:16.231Z,19.70
2017-12-22T06:46:44.467Z,19.70
2017-12-22T06:49:12.830Z,19.60
2017-12-22T06:51:41.079Z,19.70
2017-12-22T06:54:09.560Z,19.60
2017-12-22T06:56:37.858Z,19.60
2017-12-22T06:59:06.926Z,19.70
2017-12-22T07:01:37.700Z,19.60
2017-12-22T07:04:05.947Z,19.70
2017-12-22T07:06:34.204Z,19.60
2017-12-22T07:09:02.504Z,19.60
2017-12-22T07:11:30.814Z,19.60
2017-12-22T07:13:59.812Z,19.60
2017-12-22T07:16:28.810Z,19.60
2017-12-22T07:18:57.825Z,19.60
2017-12-22T07:21:26.128Z,19.60
2017-12-22T07:23:54.462Z,19.60
2017-12-22T07:26:23.965Z,19.60
2017-12-22T07:28:52.196Z,19.60
2017-12-22T07:31:20.510Z,19.60
2017-12-22T07:33:48.742Z,19.60
2017-12-22T07:36:22.954Z,19.60
2017-12-22T07:38:51.446Z,19.60
2017-12-22T07:41:19.694Z,19.60
2017-12-22T07:43:47.911Z,19.60
2017-12-22T07:46:16.199Z,19.60
2017-12-22T07:48:45.262Z,19.50
2017-12-22T07:51:13.510Z,19.60
2017-12-22T07:53:41.784Z,19.50
2017-12-22T07:56:10.009Z,19.60
2017-12-22T07:58:38.337Z,19.60
2017-12-22T08:01:06.572Z,19.50
2017-12-22T08:03:35.623Z,19.50
2017-12-22T08:06:03.891Z,19.50
2017-12-22T08:08:32.134Z,19.50
2017-12-22T08:11:00.371Z,19.50
2017-12-22T08:13:28.615Z,19.50
2017-12-22T08:15:56.930Z,19.50
2017-12-22T08:18:25.922Z,19.60
2017-12-22T08:20:54.159Z,19.50
2017-12-22T08:23:22.397Z,19.60
2017-12-22T08:25:50.679Z,19.60
2017-12-22T08:28:18.931Z,19.50
2017-12-22T08:30:47.935Z,19.50
2017-12-22T08:33:16.315Z,19.50
2017-12-22T08:35:44.598Z,19.60
2017-12-22T08:38:12.836Z,19.60
2017-12-22T08:40:41.444Z,19.60
2017-12-22T08:43:10.468Z,19.60
2017-12-22T08:45:38.722Z,19.60
2017-12-22T08:48:06.985Z,19.60
2017-12-22T08:50:35.244Z,19.60
2017-12-22T08:53:04.295Z,19.60
2017-12-22T08:55:32.782Z,19.50
2017-12-22T08:58:01.086Z,19.60
2017-12-22T09:00:29.445Z,19.60
2017-12-22T09:02:57.739Z,19.60
2017-12-22T09:05:25.991Z,19.50
2017-12-22T09:07:54.303Z,19.60
2017-12-22T09:10:23.309Z,19.60
2017-12-22T09:12:51.553Z,19.50
2017-12-22T09:15:19.784Z,19.50
2017-12-22T09:17:48.058Z,19.60
2017-12-22T09:20:16.311Z,19.60
2017-12-22T09:22:44.632Z,19.50
2017-12-22T09:25:12.939Z,19.60
2017-12-22T09:27:42.003Z,19.60
2017-12-22T09:30:10.466Z,19.50
2017-12-22T09:32:38.731Z,19.60
2017-12-22T09:35:07.036Z,19.50
2017-12-22T09:37:35.262Z,19.60
2017-12-22T09:40:03.525Z,19.60
2017-12-22T09:42:31.768Z,19.60
2017-12-22T09:45:00.006Z,19.60
2017-12-22T09:47:28.320Z,19.60
2017-12-22T09:49:56.599Z,19.60
2017-12-22T09:52:25.064Z,19.70
2017-12-22T09:54:53.376Z,19.70
2017-12-22T09:57:22.399Z,19.70
2017-12-22T09:59:50.697Z,19.70
2017-12-22T10:02:18.926Z,19.70
2017-12-22T10:04:47.960Z,19.70
2017-12-22T10:07:16.256Z,19.70
2017-12-22T10:09:44.506Z,19.70
2017-12-22T10:12:12.759Z,19.70
2017-12-22T10:14:40.993Z,19.70
2017-12-22T10:17:09.231Z,19.70
2017-12-22T10:19:37.545Z,19.70
2017-12-22T10:22:05.790Z,19.70
2017-12-22T10:24:34.069Z,19.70
2017-12-22T10:27:02.347Z,19.70
2017-12-22T10:29:30.611Z,19.60
2017-12-22T10:31:59.251Z,19.70
2017-12-22T10:34:27.479Z,19.70
2017-12-22T10:36:55.761Z,19.60
2017-12-22T10:39:24.089Z,19.60
2017-12-22T10:41:52.353Z,19.70
2017-12-22T10:44:21.474Z,19.60
2017-12-22T10:46:49.698Z,19.60
2017-12-22T10:49:17.960Z,19.60
2017-12-22T10:51:46.288Z,19.70
2017-12-22T10:54:14.538Z,19.70
2017-12-22T10:56:43.523Z,19.70
2017-12-22T10:59:11.748Z,19.70
2017-12-22T11:01:39.973Z,19.60
2017-12-22T11:04:08.193Z,19.70
2017-12-22T11:06:36.559Z,19.60
2017-12-22T11:09:04.804Z,19.60
2017-12-22T11:11:33.829Z,19.70
2017-12-22T11:16:57.679Z,19.70
2017-12-22T11:19:26.950Z,19.60
2017-12-22T11:21:55.236Z,19.60
2017-12-22T11:24:23.487Z,19.70
2017-12-22T11:26:51.859Z,19.60
2017-12-22T11:29:20.222Z,19.60
2017-12-22T11:31:49.523Z,19.70
2017-12-22T11:34:17.801Z,19.70
2017-12-22T11:36:46.072Z,19.70
2017-12-22T11:39:14.321Z,19.70
2017-12-22T11:41:43.334Z,19.70
2017-12-22T11:44:11.588Z,19.70
2017-12-22T11:46:40.631Z,19.70
2017-12-22T11:49:08.898Z,19.70
2017-12-22T11:51:37.331Z,19.70
2017-12-22T11:54:06.338Z,19.70
2017-12-22T11:56:34.547Z,19.70
2017-12-22T11:59:02.851Z,19.70
2017-12-22T12:01:31.138Z,19.70
2017-12-22T12:03:59.360Z,19.70
2017-12-22T12:06:28.394Z,19.70
2017-12-22T12:08:56.639Z,19.70
2017-12-22T12:11:24.952Z,19.70
2017-12-22T12:13:53.281Z,19.70
2017-12-22T12:16:21.560Z,19.70
2017-12-22T12:18:49.781Z,19.70
2017-12-22T12:21:18.129Z,19.70
2017-12-22T12:23:46.381Z,19.70
2017-12-22T12:26:14.713Z,19.70
2017-12-22T12:28:43.834Z,19.60
2017-12-22T12:31:12.211Z,19.60
2017-12-22T12:33:40.512Z,19.70
2017-12-22T12:36:08.826Z,19.60
2017-12-22T12:38:37.139Z,19.60
2017-12-22T12:41:05.405Z,19.60
2017-12-22T12:43:33.833Z,19.60
2017-12-22T12:46:02.216Z,19.60
2017-12-22T12:48:30.480Z,19.60
2017-12-22T12:50:58.765Z,19.60
2017-12-22T12:53:27.049Z,19.60
2017-12-22T12:55:55.622Z,19.60
2017-12-22T12:58:23.864Z,19.60
2017-12-22T13:00:52.227Z,19.60
2017-12-22T13:03:20.480Z,19.60
2017-12-22T13:05:48.781Z,19.60
2017-12-22T13:08:17.038Z,19.70
2017-12-22T13:10:46.084Z,19.70
2017-12-22T13:13:14.359Z,19.70
2017-12-22T13:15:42.684Z,19.70
2017-12-22T13:18:13.418Z,19.70
2017-12-22T13:20:41.732Z,19.70
2017-12-22T13:23:10.143Z,19.70
2017-12-22T13:25:38.407Z,19.70
2017-12-22T13:28:08.010Z,19.60
2017-12-22T13:30:36.330Z,19.60
2017-12-22T13:33:04.607Z,19.60
2017-12-22T13:35:32.912Z,19.60
2017-12-22T13:38:01.203Z,19.60
2017-12-22T13:40:29.457Z,19.60
2017-12-22T13:42:57.906Z,19.60
2017-12-22T13:45:27.016Z,19.60
2017-12-22T13:47:55.306Z,19.60
2017-12-22T13:50:23.739Z,19.60
2017-12-22T13:52:51.971Z,19.60
2017-12-22T13:55:20.273Z,19.60
2017-12-22T13:57:48.571Z,19.60
2017-12-22T14:00:16.864Z,19.60
2017-12-22T14:02:45.924Z,19.60
2017-12-22T14:05:14.244Z,19.60
2017-12-22T14:07:42.506Z,19.60
2017-12-22T14:12:45.309Z,19.60
2017-12-22T14:15:13.561Z,19.60
2017-12-22T14:17:41.841Z,19.60
2017-12-22T14:20:10.124Z,19.60
2017-12-22T14:22:39.139Z,19.70
2017-12-22T14:25:07.386Z,19.60
2017-12-22T14:27:35.647Z,19.70
2017-12-22T14:30:03.898Z,19.60
2017-12-22T14:32:32.152Z,19.70
2017-12-22T14:35:00.415Z,19.70
2017-12-22T14:37:28.691Z,19.70
2017-12-22T14:39:56.962Z,19.70
2017-12-22T14:42:25.212Z,19.70
2017-12-22T14:44:53.454Z,19.70
2017-12-22T14:47:21.761Z,19.70
2017-12-22T14:49:50.909Z,19.70
2017-12-22T14:52:19.233Z,19.70
2017-12-22T14:54:47.493Z,19.70
2017-12-22T14:57:15.889Z,19.70
2017-12-22T14:59:44.150Z,19.70
2017-12-22T15:02:13.224Z,19.70
2017-12-22T15:04:41.467Z,19.70
2017-12-22T15:07:09.744Z,19.70
2017-12-22T15:09:38.005Z,19.70
2017-12-22T15:12:07.072Z,19.70
2017-12-22T15:14:35.348Z,19.70
2017-12-22T15:17:03.657Z,19.70
2017-12-22T15:19:31.935Z,19.70
2017-12-22T15:22:00.728Z,19.70
2017-12-22T15:24:29.002Z,19.70
2017-12-22T15:26:57.333Z,19.70
2017-12-22T15:29:25.616Z,19.70
2017-12-22T15:31:54.759Z,19.70
2017-12-22T15:34:23.064Z,19.70
2017-12-22T15:36:51.312Z,19.70
2017-12-22T15:39:19.739Z,19.70
2017-12-22T15:41:48.030Z,19.70
2017-12-22T15:44:16.379Z,19.70
2017-12-22T15:46:44.818Z,19.70
2017-12-22T15:49:13.117Z,19.70
2017-12-22T15:51:41.388Z,19.70
2017-12-22T15:54:09.622Z,19.70
2017-12-22T15:56:38.819Z,19.70
2017-12-22T15:59:07.070Z,19.70
2017-12-22T16:01:36.118Z,19.70
2017-12-22T16:04:04.395Z,19.70
2017-12-22T16:06:32.664Z,19.70
2017-12-22T16:09:00.993Z,19.80
2017-12-22T16:11:29.249Z,19.70
2017-12-22T16:13:57.513Z,19.70
2017-12-22T16:16:25.885Z,19.80
2017-12-22T16:18:54.203Z,19.70
2017-12-22T16:21:22.490Z,19.70
2017-12-22T16:23:51.506Z,19.80
2017-12-22T16:26:19.802Z,19.80
2017-12-22T16:28:48.090Z,19.80
2017-12-22T16:31:16.476Z,19.80
2017-12-22T16:33:44.896Z,19.80
2017-12-22T16:36:13.981Z,19.80
2017-12-22T16:38:43.019Z,19.80
2017-12-22T16:41:11.811Z,19.80
2017-12-22T16:43:40.119Z,19.80
2017-12-22T16:46:08.391Z,19.80
2017-12-22T16:48:36.674Z,19.80
2017-12-22T16:51:04.984Z,19.80
2017-12-22T16:53:33.379Z,19.80
2017-12-22T16:56:01.679Z,19.80
2017-12-22T16:58:29.973Z,19.80
2017-12-22T17:00:58.259Z,19.80
2017-12-22T17:03:26.511Z,19.80
2017-12-22T17:05:54.795Z,19.80
2017-12-22T17:08:23.868Z,19.80
2017-12-22T17:10:52.174Z,19.80
2017-12-22T17:13:20.482Z,19.80
2017-12-22T17:15:48.748Z,19.80
2017-12-22T17:18:16.991Z,19.80
2017-12-22T17:20:45.237Z,19.80
2017-12-22T17:23:13.617Z,19.80
2017-12-22T17:25:41.962Z,19.80
2017-12-22T17:28:10.291Z,19.80
2017-12-22T17:30:38.703Z,19.80
2017-12-22T17:33:06.980Z,19.80
2017-12-22T17:35:35.790Z,19.80
2017-12-22T17:38:04.104Z,19.80
2017-12-22T17:40:32.363Z,19.80
2017-12-22T17:43:00.751Z,19.80
2017-12-22T17:45:29.038Z,19.80
2017-12-22T17:47:57.322Z,19.80
2017-12-22T17:50:25.695Z,19.80
2017-12-22T17:52:53.931Z,19.90
2017-12-22T17:55:22.194Z,19.90
2017-12-22T17:57:50.499Z,19.90
2017-12-22T18:00:18.819Z,19.90
2017-12-22T18:02:47.845Z,19.80
2017-12-22T18:05:16.183Z,19.80
2017-12-22T18:07:44.423Z,19.90
2017-12-22T18:10:12.657Z,19.90
2017-12-22T18:12:41.070Z,19.80
2017-12-22T18:15:09.454Z,19.90
2017-12-22T18:17:37.688Z,19.80
2017-12-22T18:20:05.988Z,19.80
2017-12-22T18:22:34.239Z,19.90
2017-12-22T18:25:02.563Z,19.90
2017-12-22T18:27:31.582Z,19.90
2017-12-22T18:29:59.972Z,19.80
2017-12-22T18:32:28.994Z,19.80
2017-12-22T18:34:57.264Z,19.80
2017-12-22T18:37:25.543Z,19.80
2017-12-22T18:39:53.863Z,19.90
2017-12-22T18:42:22.162Z,19.80
2017-12-22T18:44:51.236Z,19.80
2017-12-22T18:47:19.590Z,19.80
2017-12-22T18:49:47.815Z,19.80
2017-12-22T18:52:16.107Z,19.90
2017-12-22T18:54:44.436Z,19.90
2017-12-22T18:57:12.671Z,19.90
2017-12-22T18:59:41.040Z,19.90
2017-12-22T19:02:09.389Z,19.90
2017-12-22T19:04:38.479Z,19.90
2017-12-22T19:07:07.520Z,19.80
2017-12-22T19:09:35.783Z,19.80
2017-12-22T19:12:04.061Z,19.90
2017-12-22T19:14:32.389Z,19.90
2017-12-22T19:17:00.693Z,19.90
2017-12-22T19:19:29.781Z,19.90
2017-12-22T19:21:58.910Z,19.90
2017-12-22T19:24:27.334Z,19.80
2017-12-22T19:26:55.616Z,19.90
2017-12-22T19:29:23.930Z,19.90
2017-12-22T19:31:52.197Z,19.90
2017-12-22T19:34:20.510Z,19.80
2017-12-22T19:36:48.776Z,19.90
2017-12-22T19:39:17.177Z,19.90
2017-12-22T19:41:46.347Z,20.00
2017-12-22T19:44:15.471Z,20.00
2017-12-22T19:49:19.115Z,19.90
2017-12-22T19:51:48.166Z,20.00
2017-12-22T19:54:16.575Z,20.00
2017-12-22T19:56:45.739Z,19.90
2017-12-22T19:59:14.007Z,19.90
2017-12-22T20:01:42.293Z,20.00
2017-12-22T20:04:10.592Z,20.00
2017-12-22T20:06:38.878Z,20.00
2017-12-22T20:09:07.934Z,20.00
2017-12-22T20:11:37.352Z,19.90
2017-12-22T20:14:06.420Z,19.90
2017-12-22T20:16:34.721Z,19.90
2017-12-22T20:19:03.046Z,19.90
2017-12-22T20:21:31.292Z,19.90
2017-12-22T20:24:00.426Z,19.90
2017-12-22T20:26:28.730Z,19.90
2017-12-22T20:28:57.016Z,19.90
2017-12-22T20:31:25.289Z,19.90
2017-12-22T20:33:53.558Z,19.90
2017-12-22T20:36:21.887Z,19.90
2017-12-22T20:38:50.157Z,19.90
2017-12-22T20:41:18.553Z,19.90
2017-12-22T20:43:46.897Z,19.90
2017-12-22T20:46:15.355Z,19.90
2017-12-22T20:48:43.599Z,19.90
2017-12-22T20:51:11.885Z,19.90
2017-12-22T20:53:40.963Z,19.90
2017-12-22T20:56:09.244Z,19.90
2017-12-22T20:58:37.590Z,19.90
2017-12-22T21:01:05.918Z,19.90
2017-12-22T21:03:34.190Z,19.90
2017-12-22T21:06:02.485Z,19.90
2017-12-22T21:08:31.614Z,19.90
2017-12-22T21:10:59.885Z,19.90
2017-12-22T21:13:28.214Z,19.90
2017-12-22T21:15:56.560Z,19.90
2017-12-22T21:18:25.663Z,19.90
2017-12-22T21:20:53.971Z,19.90
2017-12-22T21:23:22.356Z,19.90
2017-12-22T21:25:50.624Z,19.90
2017-12-22T21:28:19.060Z,19.90
2017-12-22T21:30:47.353Z,19.90
2017-12-22T21:33:15.653Z,19.90
2017-12-22T21:35:43.998Z,19.90
2017-12-22T21:38:13.044Z,19.90
2017-12-22T21:40:41.313Z,19.90
2017-12-22T21:43:09.979Z,20.00
2017-12-22T21:45:38.435Z,19.90
2017-12-22T21:48:06.743Z,19.90
2017-12-22T21:50:35.012Z,20.00
2017-12-22T21:53:03.261Z,19.90
2017-12-22T21:55:31.545Z,19.90
2017-12-22T21:57:59.856Z,19.90
2017-12-22T22:00:28.117Z,19.90
2017-12-22T22:02:56.480Z,19.90
2017-12-22T22:05:24.717Z,19.80
2017-12-22T22:07:52.967Z,19.80
2017-12-22T22:10:21.351Z,19.70
2017-12-22T22:12:49.623Z,19.60
2017-12-22T22:15:17.980Z,19.60
2017-12-22T22:17:48.920Z,19.50
2017-12-22T22:20:17.573Z,19.40
2017-12-22T22:22:45.905Z,19.40
2017-12-22T22:25:14.138Z,19.40
2017-12-22T22:27:42.418Z,19.40
2017-12-22T22:30:10.844Z,19.30
2017-12-22T22:32:39.114Z,19.30
2017-12-22T22:35:08.256Z,19.30
2017-12-22T22:37:36.537Z,19.30
2017-12-22T22:40:04.807Z,19.30
2017-12-22T22:42:33.048Z,19.30
2017-12-22T22:45:02.311Z,19.20
2017-12-22T22:47:30.561Z,19.30
2017-12-22T22:49:58.875Z,19.30
2017-12-22T22:52:27.135Z,19.20
2017-12-22T22:54:55.391Z,19.20
2017-12-22T22:57:23.667Z,19.20
2017-12-22T22:59:51.894Z,19.20
2017-12-22T23:02:20.178Z,19.20
2017-12-22T23:04:48.534Z,19.20
2017-12-22T23:07:16.846Z,19.20
2017-12-22T23:09:45.117Z,19.20
2017-12-22T23:12:14.137Z,19.10
2017-12-22T23:14:42.416Z,19.20
2017-12-22T23:17:10.747Z,19.10
2017-12-22T23:19:39.809Z,19.10
2017-12-22T23:22:08.092Z,19.10
2017-12-22T23:24:36.346Z,19.10
2017-12-22T23:27:04.689Z,19.10
2017-12-22T23:29:33.019Z,19.10
2017-12-22T23:32:01.343Z,19.10
2017-12-22T23:34:29.608Z,19.10
2017-12-22T23:36:58.610Z,19.10
2017-12-22T23:39:26.869Z,19.10
2017-12-22T23:41:56.059Z,19.00
2017-12-22T23:44:25.080Z,19.00
2017-12-22T23:46:54.121Z,19.00
2017-12-22T23:49:22.463Z,19.00
2017-12-22T23:51:50.673Z,19.00
2017-12-22T23:54:18.943Z,19.00
2017-12-22T23:56:47.200Z,19.00
2017-12-22T23:59:15.462Z,19.00
